This is the latest recevied weather packets stored in our database for station/object KC0AFB. If no packets are shown the sender has not sent any weather packets the latest 10 day(s).
| Time | Temp. | Humidity | Pressure | Rain* | Wind** | Luminosity | Snow |
|---|---|---|---|---|---|---|---|
| 1778012256 | 6.11° C | 47% | 1014.9 hPa | 0 mm | - | 301 W/m² | - |
| 1778011954 | 6.11° C | 46% | 1014.9 hPa | 0 mm | - | 337 W/m² | - |
| 1778011652 | 6.11° C | 47% | 1014.6 hPa | 0 mm | - | 510 W/m² | - |
| 1778011349 | 6.11° C | 46% | 1014.8 hPa | 0 mm | - | 367 W/m² | - |
| 1778011044 | 6.67° C | 46% | 1014.6 hPa | 0 mm | - | 563 W/m² | - |
| 1778010742 | 6.67° C | 46% | 1014.6 hPa | 0 mm | - | 530 W/m² | - |
| 1778010439 | 6.11° C | 48% | 1014.6 hPa | 0 mm | - | 408 W/m² | - |
| 1778010135 | 6.11° C | 47% | 1015 hPa | 0 mm | - | 336 W/m² | - |
| 1778009831 | 5.56° C | 46% | 1014.8 hPa | 0 mm | - | 345 W/m² | - |
| 1778009529 | 5.56° C | 48% | 1014.9 hPa | 0 mm | - | 314 W/m² | - |
| 1778009227 | 5.56° C | 47% | 1014.9 hPa | 0 mm | - | 304 W/m² | - |
| 1778008923 | 5.56° C | 48% | 1014.8 hPa | 0 mm | - | 273 W/m² | - |
| 1778008622 | 5.56° C | 47% | 1014.5 hPa | 0 mm | - | 298 W/m² | - |
| 1778008320 | 5.56° C | 47% | 1014.8 hPa | 0 mm | - | 272 W/m² | - |
| 1778008015 | 5.56° C | 46% | 1014.5 hPa | 0 mm | - | 328 W/m² | - |
| 1778007710 | 5.56° C | 47% | 1014.5 hPa | 0 mm | - | 306 W/m² | - |
| 1778007407 | 5.56° C | 46% | 1014.5 hPa | 0 mm | - | 277 W/m² | - |
| 1778007103 | 5.56° C | 45% | 1014.6 hPa | 0 mm | - | 323 W/m² | - |
| 1778006800 | 5.56° C | 46% | 1014.4 hPa | 0 mm | - | 294 W/m² | - |
| 1778006497 | 6.11° C | 45% | 1014.6 hPa | 0 mm | - | 349 W/m² | - |
| 1778006194 | 6.11° C | 44% | 1014.5 hPa | 0 mm | - | 322 W/m² | - |
| 1778005892 | 5.56° C | 46% | 1014.5 hPa | 0 mm | - | 360 W/m² | - |
| 1778005587 | 5.56° C | 46% | 1014.4 hPa | 0 mm | - | 324 W/m² | - |
| 1778005284 | 5.56° C | 46% | 1014.5 hPa | 0 mm | - | 268 W/m² | - |
| 1778004981 | 5.56° C | 45% | 1014.5 hPa | 0 mm | - | 298 W/m² | - |
* Rain latest hour (hover to see other rain measurements)
** Current wind speed in m/s (hover to see current wind gust speed)